Time;durP1;ratioP1;P1;durP2;ratioP2;P2;SDS_P1;SDS_P2;PMS_P1;PMS_P2;Temp;Humidity;BMP_temperature;BMP_pressure;BME280_temperature;BME280_humidity;BME280_pressure;Samples;Min_cycle;Max_cycle;Signal;HPM_P1;HPM_P2
2023/07/24 00:01:02;;;;;;;18.50;7.80;;;;;;;;;;5071037;27;20048;-81
2023/07/24 00:03:29;;;;;;;11.23;7.60;;;;;;;;;;5086736;27;20043;-82
2023/07/24 00:05:59;;;;;;;10.82;6.78;;;;;;;;;;5105105;27;20046;-82
2023/07/24 00:08:25;;;;;;;14.07;7.68;;;;;;;;;;5084743;27;20496;-82
2023/07/24 00:10:51;;;;;;;10.85;7.68;;;;;;;;;;5071292;27;20044;-82
2023/07/24 00:13:17;;;;;;;11.13;7.25;;;;;;;;;;5103758;27;20157;-82
2023/07/24 00:15:43;;;;;;;13.50;7.85;;;;;;;;;;5069238;27;20036;-81
2023/07/24 00:18:09;;;;;;;9.93;7.68;;;;;;;;;;5089799;27;20099;-82
2023/07/24 00:20:35;;;;;;;10.65;7.40;;;;;;;;;;5104711;27;20483;-82
2023/07/24 00:23:01;;;;;;;10.68;7.32;;;;;;;;;;5067417;27;20574;-82
2023/07/24 00:25:27;;;;;;;14.18;7.88;;;;;;;;;;5091223;27;20535;-82
2023/07/24 00:27:53;;;;;;;12.75;7.65;;;;;;;;;;5094812;27;20105;-82
2023/07/24 00:30:19;;;;;;;11.68;7.43;;;;;;;;;;5092439;27;20120;-82
2023/07/24 00:32:45;;;;;;;12.57;7.53;;;;;;;;;;5085087;27;20091;-82
2023/07/24 00:35:11;;;;;;;10.52;7.80;;;;;;;;;;5072073;27;20042;-82
2023/07/24 00:37:38;;;;;;;12.30;7.53;;;;;;;;;;5089192;27;20039;-81
2023/07/24 00:40:04;;;;;;;16.52;7.97;;;;;;;;;;5088537;27;20069;-82
2023/07/24 00:42:30;;;;;;;12.35;7.13;;;;;;;;;;5088020;27;20055;-82
2023/07/24 00:44:56;;;;;;;12.48;7.75;;;;;;;;;;5107064;27;20039;-82
2023/07/24 00:47:23;;;;;;;17.60;8.23;;;;;;;;;;5088144;27;20129;-82
2023/07/24 00:49:50;;;;;;;10.07;7.15;;;;;;;;;;5103020;27;21100;-82
2023/07/24 00:52:16;;;;;;;9.65;6.40;;;;;;;;;;5067853;27;20057;-82
2023/07/24 00:54:44;;;;;;;12.60;7.53;;;;;;;;;;5090376;27;20414;-82
2023/07/24 00:57:10;;;;;;;10.25;7.45;;;;;;;;;;5087582;27;20548;-81
2023/07/24 00:59:36;;;;;;;15.57;7.60;;;;;;;;;;5088588;27;20082;-81
2023/07/24 01:02:03;;;;;;;11.93;7.07;;;;;;;;;;5066025;27;20112;-81
2023/07/24 01:04:29;;;;;;;15.88;7.95;;;;;;;;;;5069963;27;20038;-81
2023/07/24 01:06:55;;;;;;;13.43;7.95;;;;;;;;;;5072429;27;20036;-81
2023/07/24 01:09:22;;;;;;;14.98;7.70;;;;;;;;;;5094668;27;20053;-81
2023/07/24 01:11:57;;;;;;;14.70;8.00;;;;;;;;;;5113016;27;20046;-81
2023/07/24 01:14:52;;;;;;;10.65;7.82;;;;;;;;;;5074280;27;20038;-79
2023/07/24 01:17:24;;;;;;;12.88;8.10;;;;;;;;;;5087803;27;20085;-81
2023/07/24 01:19:53;;;;;;;12.73;7.95;;;;;;;;;;5088162;27;20071;-82
2023/07/24 01:22:26;;;;;;;14.20;8.80;;;;;;;;;;5086198;27;20043;-83
2023/07/24 01:25:00;;;;;;;18.98;8.52;;;;;;;;;;5086240;27;20046;-83
2023/07/24 01:27:26;;;;;;;12.35;8.25;;;;;;;;;;5087542;27;20148;-82
2023/07/24 01:29:52;;;;;;;13.98;8.57;;;;;;;;;;5085144;27;20039;-83
2023/07/24 01:32:19;;;;;;;14.55;8.70;;;;;;;;;;5085884;27;20039;-81
2023/07/24 01:34:45;;;;;;;12.45;8.65;;;;;;;;;;5087546;27;20054;-82
2023/07/24 01:37:12;;;;;;;17.10;8.82;;;;;;;;;;5084753;27;20045;-82
2023/07/24 01:39:41;;;;;;;19.15;9.85;;;;;;;;;;5088780;27;20143;-81
2023/07/24 01:42:07;;;;;;;22.65;9.50;;;;;;;;;;5086201;27;20118;-82
2023/07/24 01:44:33;;;;;;;14.00;8.48;;;;;;;;;;5070764;27;20709;-82
2023/07/24 01:46:59;;;;;;;14.25;8.63;;;;;;;;;;5086016;27;20039;-82
2023/07/24 01:49:25;;;;;;;17.08;9.73;;;;;;;;;;5083443;27;20136;-82
2023/07/24 01:51:51;;;;;;;19.27;9.68;;;;;;;;;;5098127;27;20071;-82
2023/07/24 01:54:17;;;;;;;18.73;9.80;;;;;;;;;;5086851;27;20047;-77
2023/07/24 01:56:43;;;;;;;14.07;9.18;;;;;;;;;;5084030;27;20517;-77
2023/07/24 01:59:10;;;;;;;14.88;10.10;;;;;;;;;;5084899;27;20062;-78
2023/07/24 02:01:36;;;;;;;16.13;9.77;;;;;;;;;;5069596;27;20047;-77
2023/07/24 02:04:02;;;;;;;19.35;9.90;;;;;;;;;;5083789;27;20054;-77
2023/07/24 02:06:28;;;;;;;20.30;9.88;;;;;;;;;;5086400;27;20180;-76
2023/07/24 02:08:54;;;;;;;22.45;10.70;;;;;;;;;;5086809;27;20120;-76
2023/07/24 02:11:20;;;;;;;16.05;10.80;;;;;;;;;;5089852;27;20050;-76
2023/07/24 02:13:47;;;;;;;20.65;11.10;;;;;;;;;;5083068;27;20047;-78
2023/07/24 02:16:13;;;;;;;20.33;10.80;;;;;;;;;;5086741;27;21558;-78
2023/07/24 02:18:41;;;;;;;21.33;10.75;;;;;;;;;;5083819;27;20411;-77
2023/07/24 02:21:07;;;;;;;17.85;10.20;;;;;;;;;;5085894;27;21672;-77
2023/07/24 02:23:34;;;;;;;18.35;10.73;;;;;;;;;;5083380;27;20491;-77
2023/07/24 02:26:00;;;;;;;19.17;11.38;;;;;;;;;;5071526;27;20042;-77
2023/07/24 02:28:26;;;;;;;18.83;10.70;;;;;;;;;;5071889;27;20446;-77
2023/07/24 02:30:56;;;;;;;16.23;12.05;;;;;;;;;;5083277;27;20074;-77
2023/07/24 02:33:23;;;;;;;19.90;12.70;;;;;;;;;;5083714;28;20039;-77
2023/07/24 02:35:50;;;;;;;22.23;12.15;;;;;;;;;;5083115;27;20039;-77
2023/07/24 02:38:16;;;;;;;20.10;12.68;;;;;;;;;;5082002;27;20047;-76
2023/07/24 02:40:43;;;;;;;16.83;12.45;;;;;;;;;;5096018;27;20035;-76
2023/07/24 02:43:09;;;;;;;21.90;13.52;;;;;;;;;;5085318;28;20039;-76
2023/07/24 02:45:35;;;;;;;24.85;13.95;;;;;;;;;;5083502;27;20127;-77
2023/07/24 02:48:02;;;;;;;21.17;13.15;;;;;;;;;;5067721;27;20038;-77
2023/07/24 02:50:28;;;;;;;21.05;14.02;;;;;;;;;;5083156;27;20047;-78
2023/07/24 02:52:54;;;;;;;21.25;14.30;;;;;;;;;;5084607;27;20046;-77
2023/07/24 02:55:20;;;;;;;22.70;15.52;;;;;;;;;;5088257;27;20138;-77
2023/07/24 02:57:46;;;;;;;23.65;16.20;;;;;;;;;;5104612;27;20043;-77
2023/07/24 03:00:14;;;;;;;26.83;16.30;;;;;;;;;;5081852;27;20832;-76
2023/07/24 03:02:40;;;;;;;25.02;15.20;;;;;;;;;;5067729;27;20044;-77
2023/07/24 03:05:06;;;;;;;27.95;16.42;;;;;;;;;;5083501;27;20107;-77
2023/07/24 03:07:33;;;;;;;23.75;16.48;;;;;;;;;;5078684;27;20452;-77
2023/07/24 03:09:59;;;;;;;21.95;16.38;;;;;;;;;;5061886;27;20040;-78
2023/07/24 03:12:25;;;;;;;23.90;17.33;;;;;;;;;;5089767;27;20088;-78
2023/07/24 03:14:51;;;;;;;26.88;16.40;;;;;;;;;;5066135;27;20130;-77
2023/07/24 03:17:17;;;;;;;28.80;17.23;;;;;;;;;;5105199;27;20052;-76
2023/07/24 03:19:43;;;;;;;22.60;16.13;;;;;;;;;;5087372;27;20047;-77
2023/07/24 03:22:10;;;;;;;25.83;17.52;;;;;;;;;;5104591;27;20048;-77
2023/07/24 03:24:36;;;;;;;24.50;16.73;;;;;;;;;;5084615;27;20051;-77
2023/07/24 03:27:02;;;;;;;22.45;16.88;;;;;;;;;;5069947;27;20043;-78
2023/07/24 03:29:28;;;;;;;23.45;16.77;;;;;;;;;;5086415;27;20048;-78
2023/07/24 03:31:54;;;;;;;19.35;15.13;;;;;;;;;;5071340;27;20233;-78
2023/07/24 03:34:20;;;;;;;22.25;16.08;;;;;;;;;;5085303;27;20039;-77
2023/07/24 03:36:47;;;;;;;21.33;16.17;;;;;;;;;;5081192;27;20042;-77
2023/07/24 03:39:13;;;;;;;23.85;15.98;;;;;;;;;;5102318;27;20132;-77
2023/07/24 03:41:39;;;;;;;24.42;15.68;;;;;;;;;;5084726;27;20067;-77
2023/07/24 03:44:05;;;;;;;20.42;15.20;;;;;;;;;;5084360;27;20111;-77
2023/07/24 03:46:34;;;;;;;23.95;14.57;;;;;;;;;;5086222;27;20042;-77
2023/07/24 03:49:01;;;;;;;23.88;15.38;;;;;;;;;;5086627;27;20043;-77
2023/07/24 03:51:27;;;;;;;18.83;14.57;;;;;;;;;;5106919;27;20127;-77
2023/07/24 03:53:53;;;;;;;20.63;15.25;;;;;;;;;;5104652;27;20702;-77
2023/07/24 03:56:19;;;;;;;20.45;15.05;;;;;;;;;;5085518;27;20095;-77
2023/07/24 03:58:45;;;;;;;19.85;14.15;;;;;;;;;;5079413;28;20086;-77
2023/07/24 04:01:11;;;;;;;25.45;15.90;;;;;;;;;;5068180;28;20048;-76
2023/07/24 04:03:38;;;;;;;20.48;14.70;;;;;;;;;;5080402;28;20134;-76
2023/07/24 04:06:04;;;;;;;21.92;14.30;;;;;;;;;;5081930;27;20039;-77
2023/07/24 04:08:30;;;;;;;20.58;13.77;;;;;;;;;;5077764;27;20055;-78
2023/07/24 04:10:56;;;;;;;23.20;14.15;;;;;;;;;;5082190;28;20051;-77
2023/07/24 04:13:22;;;;;;;20.85;14.20;;;;;;;;;;5081672;28;20058;-78
2023/07/24 04:15:48;;;;;;;21.45;14.68;;;;;;;;;;5083188;28;20052;-78
2023/07/24 04:18:14;;;;;;;15.57;13.48;;;;;;;;;;5083998;28;20043;-77
2023/07/24 04:20:41;;;;;;;20.25;13.82;;;;;;;;;;5081573;28;20051;-77
2023/07/24 04:23:07;;;;;;;19.42;12.20;;;;;;;;;;5065165;28;20050;-77
2023/07/24 04:25:33;;;;;;;18.30;13.02;;;;;;;;;;5068649;28;20039;-77
2023/07/24 04:27:59;;;;;;;19.13;13.27;;;;;;;;;;5085084;28;20043;-78
2023/07/24 04:30:25;;;;;;;24.00;12.82;;;;;;;;;;5072509;28;20048;-78
2023/07/24 04:32:51;;;;;;;22.65;13.60;;;;;;;;;;5072459;28;20039;-78
2023/07/24 04:35:17;;;;;;;15.80;11.98;;;;;;;;;;5088060;28;20047;-78
2023/07/24 04:37:43;;;;;;;19.83;12.60;;;;;;;;;;5089851;28;20048;-77
2023/07/24 04:40:10;;;;;;;17.95;12.30;;;;;;;;;;5068545;28;20050;-78
2023/07/24 04:42:36;;;;;;;18.30;12.25;;;;;;;;;;5084405;28;20075;-77
2023/07/24 04:45:02;;;;;;;15.30;11.35;;;;;;;;;;5086307;28;20056;-77
2023/07/24 04:47:28;;;;;;;16.45;12.10;;;;;;;;;;5084175;28;20480;-77
2023/07/24 04:49:55;;;;;;;16.30;11.82;;;;;;;;;;5069836;28;20090;-78
2023/07/24 04:52:21;;;;;;;12.93;10.38;;;;;;;;;;5083065;28;20047;-78
2023/07/24 04:54:47;;;;;;;19.13;12.30;;;;;;;;;;5083657;28;20039;-78
2023/07/24 04:57:13;;;;;;;20.40;12.43;;;;;;;;;;5078069;28;20040;-78
2023/07/24 04:59:39;;;;;;;16.15;12.07;;;;;;;;;;5078397;28;20063;-77
2023/07/24 05:02:06;;;;;;;18.20;11.70;;;;;;;;;;5083430;28;20094;-78
2023/07/24 05:04:32;;;;;;;16.27;11.77;;;;;;;;;;5067198;28;20407;-78
2023/07/24 05:06:58;;;;;;;21.92;12.65;;;;;;;;;;5066392;28;20044;-78
2023/07/24 05:09:24;;;;;;;21.45;12.65;;;;;;;;;;5083468;27;20040;-77
2023/07/24 05:11:50;;;;;;;19.58;12.75;;;;;;;;;;5083868;28;20046;-77
2023/07/24 05:14:16;;;;;;;22.60;12.55;;;;;;;;;;5086889;28;20154;-80
2023/07/24 05:16:42;;;;;;;15.60;12.45;;;;;;;;;;5084975;28;20480;-80
2023/07/24 05:19:08;;;;;;;16.55;12.48;;;;;;;;;;5086306;28;20040;-82
2023/07/24 05:21:34;;;;;;;17.95;13.02;;;;;;;;;;5071168;28;20039;-81
2023/07/24 05:24:00;;;;;;;16.23;13.07;;;;;;;;;;5088165;28;20051;-82
2023/07/24 05:26:27;;;;;;;15.98;13.52;;;;;;;;;;5089070;27;20086;-81
2023/07/24 05:28:53;;;;;;;20.80;14.07;;;;;;;;;;5088337;28;20040;-81
2023/07/24 05:31:19;;;;;;;15.32;12.77;;;;;;;;;;5089516;28;20119;-81
2023/07/24 05:33:45;;;;;;;17.42;13.07;;;;;;;;;;5048896;28;20043;-81
2023/07/24 05:36:11;;;;;;;16.08;13.13;;;;;;;;;;5087308;28;20051;-80
2023/07/24 05:38:37;;;;;;;17.75;12.93;;;;;;;;;;5086877;28;20433;-81
2023/07/24 05:41:04;;;;;;;19.60;12.63;;;;;;;;;;5087845;28;20052;-81
2023/07/24 05:43:30;;;;;;;15.63;12.20;;;;;;;;;;5084683;28;20123;-80
2023/07/24 05:45:57;;;;;;;19.10;13.02;;;;;;;;;;5086982;28;20056;-81
2023/07/24 05:48:24;;;;;;;20.00;11.57;;;;;;;;;;5085545;27;20118;-81
2023/07/24 05:50:50;;;;;;;14.05;11.50;;;;;;;;;;5083986;28;20036;-80
2023/07/24 05:53:17;;;;;;;15.68;12.20;;;;;;;;;;5086128;28;20525;-80
2023/07/24 05:55:46;;;;;;;18.48;12.52;;;;;;;;;;5073973;28;20122;-81
2023/07/24 05:58:13;;;;;;;15.18;12.55;;;;;;;;;;5083827;27;20035;-86
2023/07/24 06:00:39;;;;;;;14.80;12.13;;;;;;;;;;5099204;27;20099;-86
2023/07/24 06:03:05;;;;;;;15.48;12.32;;;;;;;;;;5087342;27;20475;-86
2023/07/24 06:05:31;;;;;;;16.50;12.30;;;;;;;;;;5105190;27;20122;-84
2023/07/24 06:07:57;;;;;;;15.13;11.65;;;;;;;;;;5106405;27;20067;-85
2023/07/24 06:10:23;;;;;;;14.40;11.77;;;;;;;;;;5089897;27;20042;-86
2023/07/24 06:12:49;;;;;;;19.50;12.70;;;;;;;;;;5111168;27;20033;-84
2023/07/24 06:15:15;;;;;;;18.40;12.95;;;;;;;;;;5077821;27;20047;-81
2023/07/24 06:17:46;;;;;;;16.95;13.35;;;;;;;;;;5109886;27;20074;-83
2023/07/24 06:20:15;;;;;;;18.55;12.27;;;;;;;;;;5107441;27;20092;-84
2023/07/24 06:22:41;;;;;;;18.23;12.75;;;;;;;;;;5086591;27;20118;-85
2023/07/24 06:25:07;;;;;;;15.35;12.90;;;;;;;;;;5103591;28;20035;-84
2023/07/24 06:27:34;;;;;;;23.75;13.35;;;;;;;;;;5106496;28;20123;-86
2023/07/24 06:30:00;;;;;;;18.55;13.00;;;;;;;;;;5087614;27;20520;-86
2023/07/24 06:32:33;;;;;;;14.18;12.00;;;;;;;;;;5108336;28;20064;-85
2023/07/24 06:34:59;;;;;;;18.02;11.63;;;;;;;;;;5089755;27;20495;-85
2023/07/24 06:37:25;;;;;;;16.10;12.43;;;;;;;;;;5108722;27;20047;-86
2023/07/24 06:39:54;;;;;;;13.68;12.10;;;;;;;;;;5098559;28;20061;-85
2023/07/24 06:42:20;;;;;;;18.92;11.57;;;;;;;;;;5085211;28;20047;-87
2023/07/24 06:44:47;;;;;;;16.80;12.35;;;;;;;;;;5109283;27;20407;-86
2023/07/24 06:47:16;;;;;;;15.32;11.68;;;;;;;;;;5128104;27;20039;-86
2023/07/24 06:49:44;;;;;;;16.25;12.27;;;;;;;;;;5126980;27;20027;-86
2023/07/24 06:52:10;;;;;;;20.67;11.88;;;;;;;;;;5093751;27;20043;-86
2023/07/24 06:54:37;;;;;;;19.05;11.52;;;;;;;;;;5110655;27;20482;-87
2023/07/24 06:57:03;;;;;;;17.50;11.60;;;;;;;;;;5094803;27;20031;-87
2023/07/24 06:59:29;;;;;;;13.70;12.10;;;;;;;;;;5124143;27;20491;-87
2023/07/24 07:01:55;;;;;;;17.00;11.43;;;;;;;;;;5079985;27;20053;-84
2023/07/24 07:04:24;;;;;;;14.10;10.98;;;;;;;;;;5110879;27;20998;-87
2023/07/24 07:06:50;;;;;;;18.10;11.35;;;;;;;;;;5076468;27;20070;-88
2023/07/24 07:09:16;;;;;;;13.82;10.43;;;;;;;;;;5084935;27;20482;-87
2023/07/24 07:11:43;;;;;;;15.60;10.55;;;;;;;;;;5093853;27;20035;-88
2023/07/24 07:14:09;;;;;;;16.17;10.55;;;;;;;;;;5133635;27;20122;-88
2023/07/24 07:16:35;;;;;;;14.65;9.32;;;;;;;;;;5091977;27;20054;-87
2023/07/24 07:19:02;;;;;;;13.07;10.27;;;;;;;;;;5127256;27;20050;-86
2023/07/24 07:21:28;;;;;;;15.80;10.52;;;;;;;;;;5092289;27;20186;-88
2023/07/24 07:23:57;;;;;;;13.40;10.25;;;;;;;;;;5092045;27;20088;-87
2023/07/24 07:26:23;;;;;;;16.08;10.25;;;;;;;;;;5108153;27;20130;-87
2023/07/24 07:28:50;;;;;;;23.33;10.93;;;;;;;;;;5127749;27;20046;-88
2023/07/24 07:31:16;;;;;;;13.82;9.23;;;;;;;;;;5074722;27;20046;-87
2023/07/24 07:33:42;;;;;;;12.23;9.35;;;;;;;;;;5108759;27;20035;-87
2023/07/24 07:36:08;;;;;;;13.82;9.32;;;;;;;;;;5090117;27;20491;-87
2023/07/24 07:38:35;;;;;;;18.35;10.25;;;;;;;;;;5091944;27;20130;-87
2023/07/24 07:41:05;;;;;;;13.52;8.93;;;;;;;;;;5109519;27;20066;-87
2023/07/24 07:43:31;;;;;;;15.30;10.27;;;;;;;;;;5122172;27;20119;-88
2023/07/24 07:45:59;;;;;;;19.35;10.07;;;;;;;;;;5101630;27;20035;-87
2023/07/24 07:48:27;;;;;;;15.90;9.18;;;;;;;;;;5109043;28;20039;-88
2023/07/24 07:50:53;;;;;;;14.63;9.45;;;;;;;;;;5093145;27;20051;-88
2023/07/24 07:53:20;;;;;;;14.80;9.70;;;;;;;;;;5111861;27;20042;-86
2023/07/24 07:55:46;;;;;;;18.65;10.65;;;;;;;;;;5092067;27;20042;-86
2023/07/24 07:58:13;;;;;;;14.20;9.95;;;;;;;;;;5109003;27;20035;-84
2023/07/24 08:00:39;;;;;;;13.80;10.43;;;;;;;;;;5107932;27;20031;-86
2023/07/24 08:03:05;;;;;;;15.32;10.20;;;;;;;;;;5126640;27;20052;-88
2023/07/24 08:05:32;;;;;;;17.25;10.82;;;;;;;;;;5103237;27;21966;-86
2023/07/24 08:07:58;;;;;;;14.52;10.10;;;;;;;;;;5109294;27;20428;-87
2023/07/24 08:10:26;;;;;;;14.75;10.07;;;;;;;;;;5128269;27;20039;-86
2023/07/24 08:12:53;;;;;;;14.25;9.50;;;;;;;;;;5107715;27;20047;-88
2023/07/24 08:15:19;;;;;;;14.70;8.88;;;;;;;;;;5109377;27;20126;-87
2023/07/24 08:17:45;;;;;;;10.90;8.40;;;;;;;;;;5092509;27;20043;-86
2023/07/24 08:20:11;;;;;;;12.13;8.20;;;;;;;;;;5108833;27;20507;-87
2023/07/24 08:22:37;;;;;;;14.32;6.97;;;;;;;;;;5088021;27;20035;-87
2023/07/24 08:25:07;;;;;;;15.18;8.18;;;;;;;;;;5125619;27;20096;-86
2023/07/24 08:27:33;;;;;;;13.52;8.20;;;;;;;;;;5109551;27;20039;-88
2023/07/24 08:29:59;;;;;;;22.75;8.57;;;;;;;;;;5091250;27;20034;-87
2023/07/24 08:32:25;;;;;;;13.48;9.50;;;;;;;;;;5077024;27;20038;-86
2023/07/24 08:34:51;;;;;;;19.45;9.52;;;;;;;;;;5078178;27;20035;-88
2023/07/24 08:37:17;;;;;;;12.70;8.65;;;;;;;;;;5086379;27;20047;-87
2023/07/24 08:39:43;;;;;;;12.32;8.07;;;;;;;;;;5092348;27;20043;-86
2023/07/24 08:42:20;;;;;;;13.50;8.65;;;;;;;;;;5091101;27;20163;-86
2023/07/24 08:44:46;;;;;;;14.85;8.43;;;;;;;;;;5126859;27;20047;-88
2023/07/24 08:47:13;;;;;;;16.65;8.90;;;;;;;;;;5087607;27;20035;-89
2023/07/24 08:49:40;;;;;;;15.90;8.50;;;;;;;;;;5090314;27;20528;-87
2023/07/24 08:52:06;;;;;;;16.73;8.90;;;;;;;;;;5107908;27;20467;-88
2023/07/24 08:54:33;;;;;;;12.30;8.18;;;;;;;;;;5107915;27;20105;-88
2023/07/24 08:57:00;;;;;;;16.35;8.68;;;;;;;;;;5106531;27;21021;-86
2023/07/24 08:59:26;;;;;;;14.65;8.15;;;;;;;;;;5108175;27;20587;-87
2023/07/24 09:01:53;;;;;;;11.23;7.35;;;;;;;;;;5085347;27;20069;-89
2023/07/24 09:04:21;;;;;;;15.38;8.77;;;;;;;;;;5088728;27;20066;-89
2023/07/24 09:06:47;;;;;;;24.02;9.98;;;;;;;;;;5110019;27;20038;-88
2023/07/24 09:09:14;;;;;;;13.45;7.93;;;;;;;;;;5107025;27;20402;-87
2023/07/24 09:11:51;;;;;;;11.13;7.45;;;;;;;;;;5087084;27;20087;-88
2023/07/24 09:14:29;;;;;;;13.82;8.13;;;;;;;;;;5090009;27;20966;-87
2023/07/24 09:17:22;;;;;;;11.80;7.25;;;;;;;;;;5106201;27;20047;-88
2023/07/24 09:19:55;;;;;;;11.40;6.47;;;;;;;;;;5087351;27;20050;-89
2023/07/24 09:22:22;;;;;;;15.15;6.78;;;;;;;;;;5109515;27;20053;-87
2023/07/24 09:24:55;;;;;;;11.65;6.60;;;;;;;;;;5092822;27;20110;-88
2023/07/24 09:27:22;;;;;;;;;;;;;;;;;;5092002;27;20035;-89
2023/07/24 09:29:48;;;;;;;11.38;6.75;;;;;;;;;;5099449;27;19923;-88
2023/07/24 09:32:24;;;;;;;10.70;6.55;;;;;;;;;;5086945;27;20031;-90
2023/07/24 09:34:50;;;;;;;11.65;7.05;;;;;;;;;;5115193;27;20039;-88
2023/07/24 09:37:27;;;;;;;13.15;6.80;;;;;;;;;;5133903;27;20038;-87
2023/07/24 09:39:53;;;;;;;12.35;7.18;;;;;;;;;;5131281;27;20372;-89
2023/07/24 09:42:27;;;;;;;13.43;7.20;;;;;;;;;;5107533;27;20034;-89
2023/07/24 09:44:53;;;;;;;14.90;7.20;;;;;;;;;;5124097;27;20933;-89
2023/07/24 09:47:20;;;;;;;11.05;7.43;;;;;;;;;;5109643;27;20716;-90
2023/07/24 09:49:46;;;;;;;11.73;6.55;;;;;;;;;;5106670;27;20100;-89
2023/07/24 09:52:13;;;;;;;10.13;6.18;;;;;;;;;;5090278;27;20043;-88
2023/07/24 09:54:46;;;;;;;11.93;5.63;;;;;;;;;;5108833;27;20132;-88
2023/07/24 09:57:14;;;;;;;10.90;6.40;;;;;;;;;;5106978;27;20092;-89
2023/07/24 09:59:41;;;;;;;9.75;6.25;;;;;;;;;;5087315;27;20079;-90
2023/07/24 10:02:11;;;;;;;10.15;6.70;;;;;;;;;;5091426;27;20039;-87
2023/07/24 10:04:41;;;;;;;14.60;7.05;;;;;;;;;;5120676;27;20089;-89
2023/07/24 10:07:07;;;;;;;8.00;6.28;;;;;;;;;;5089879;27;20046;-88
2023/07/24 10:09:34;;;;;;;10.68;6.45;;;;;;;;;;5092232;27;20035;-90
2023/07/24 10:12:01;;;;;;;11.68;6.32;;;;;;;;;;5086328;27;20035;-88
2023/07/24 10:14:30;;;;;;;12.38;7.63;;;;;;;;;;5089257;27;20102;-89
2023/07/24 10:16:57;;;;;;;14.25;9.23;;;;;;;;;;5106386;27;20441;-90
2023/07/24 10:19:23;;;;;;;12.82;7.50;;;;;;;;;;5092059;27;20042;-90
2023/07/24 10:21:50;;;;;;;14.35;8.68;;;;;;;;;;5084889;27;20118;-87
2023/07/24 10:24:16;;;;;;;14.30;8.55;;;;;;;;;;5080701;28;20080;-89
2023/07/24 10:26:42;;;;;;;11.65;6.30;;;;;;;;;;5105726;27;20042;-90
2023/07/24 10:29:09;;;;;;;11.80;7.45;;;;;;;;;;5105109;27;20039;-89
2023/07/24 10:31:36;;;;;;;12.07;7.30;;;;;;;;;;5111656;27;20153;-86
2023/07/24 10:34:05;;;;;;;13.38;7.10;;;;;;;;;;5128323;27;20506;-89
2023/07/24 10:36:36;;;;;;;13.20;7.53;;;;;;;;;;5103411;27;20043;-89
2023/07/24 10:39:02;;;;;;;12.35;7.38;;;;;;;;;;5089450;27;20035;-87
2023/07/24 10:41:39;;;;;;;9.77;5.90;;;;;;;;;;5104075;28;20042;-87
2023/07/24 10:44:08;;;;;;;7.45;4.68;;;;;;;;;;5106961;28;20540;-89
2023/07/24 10:46:39;;;;;;;8.25;4.43;;;;;;;;;;5090370;28;20119;-90
2023/07/24 10:49:05;;;;;;;8.23;4.10;;;;;;;;;;5086877;28;20240;-89
2023/07/24 10:51:37;;;;;;;5.03;3.00;;;;;;;;;;5087624;28;20586;-89
2023/07/24 10:54:04;;;;;;;5.75;2.92;;;;;;;;;;5091613;27;20043;-89
2023/07/24 10:56:30;;;;;;;8.68;3.03;;;;;;;;;;5088185;28;20483;-91
2023/07/24 10:59:02;;;;;;;5.95;2.70;;;;;;;;;;5099004;28;20051;-90
2023/07/24 11:01:28;;;;;;;6.63;2.60;;;;;;;;;;5101623;28;20043;-89
2023/07/24 11:03:57;;;;;;;6.20;2.75;;;;;;;;;;5087727;28;20043;-90
2023/07/24 11:06:23;;;;;;;8.10;3.85;;;;;;;;;;5093379;28;20087;-90
2023/07/24 11:08:53;;;;;;;3.17;2.28;;;;;;;;;;5096446;28;20096;-89
2023/07/24 11:11:19;;;;;;;5.90;2.55;;;;;;;;;;5092176;28;20027;-90
2023/07/24 11:13:45;;;;;;;9.80;3.10;;;;;;;;;;5098128;28;20122;-90
2023/07/24 11:16:11;;;;;;;4.80;3.20;;;;;;;;;;5136648;27;20047;-84
2023/07/24 11:18:45;;;;;;;6.55;3.28;;;;;;;;;;5123583;28;20037;-86
2023/07/24 11:21:18;;;;;;;8.05;3.58;;;;;;;;;;5096391;28;20083;-91
2023/07/24 11:23:53;;;;;;;15.73;5.32;;;;;;;;;;5109916;28;20065;-88
2023/07/24 11:26:20;;;;;;;14.50;4.47;;;;;;;;;;5109469;28;20038;-88
2023/07/24 11:28:46;;;;;;;8.07;4.40;;;;;;;;;;5111117;28;20045;-87
2023/07/24 11:31:19;;;;;;;6.00;3.67;;;;;;;;;;5091207;27;20043;-88
2023/07/24 11:33:45;;;;;;;5.82;4.40;;;;;;;;;;5108925;27;20061;-89
2023/07/24 11:36:11;;;;;;;8.77;4.50;;;;;;;;;;5096302;27;20413;-88
2023/07/24 11:38:38;;;;;;;6.72;4.20;;;;;;;;;;5097404;27;20035;-88
2023/07/24 11:41:05;;;;;;;8.35;4.95;;;;;;;;;;5115324;27;20043;-90
2023/07/24 11:43:31;;;;;;;12.35;5.40;;;;;;;;;;5131794;27;20611;-89
2023/07/24 11:45:57;;;;;;;8.15;5.35;;;;;;;;;;5093336;27;20032;-90
2023/07/24 11:48:24;;;;;;;8.02;4.97;;;;;;;;;;5091064;27;20039;-89
2023/07/24 11:50:52;;;;;;;6.55;4.25;;;;;;;;;;5093643;27;20045;-90
2023/07/24 11:53:22;;;;;;;7.47;5.10;;;;;;;;;;5090638;27;20036;-89
2023/07/24 11:55:48;;;;;;;9.75;5.80;;;;;;;;;;5102836;27;20039;-91
2023/07/24 11:58:21;;;;;;;8.95;4.88;;;;;;;;;;5091084;27;20054;-90
2023/07/24 12:00:48;;;;;;;7.50;4.75;;;;;;;;;;5098717;27;20043;-89
2023/07/24 12:03:15;;;;;;;8.88;5.32;;;;;;;;;;5111315;27;20071;-90
2023/07/24 12:05:41;;;;;;;7.18;4.90;;;;;;;;;;5090191;27;20039;-90
2023/07/24 12:08:08;;;;;;;8.23;5.28;;;;;;;;;;5108156;27;20043;-90
2023/07/24 12:10:37;;;;;;;8.18;6.07;;;;;;;;;;5095111;27;20035;-91
2023/07/24 12:13:03;;;;;;;13.70;6.43;;;;;;;;;;5100519;27;20056;-89
2023/07/24 12:15:29;;;;;;;6.50;5.45;;;;;;;;;;5088300;27;20084;-88
2023/07/24 12:17:56;;;;;;;6.78;5.95;;;;;;;;;;5095149;27;20491;-89
2023/07/24 12:20:22;;;;;;;10.93;6.55;;;;;;;;;;5096515;27;20039;-87
2023/07/24 12:22:49;;;;;;;8.18;5.72;;;;;;;;;;5093280;27;20057;-91
2023/07/24 12:25:16;;;;;;;8.90;5.90;;;;;;;;;;5099663;27;20035;-90
2023/07/24 12:27:42;;;;;;;8.50;6.07;;;;;;;;;;5107892;27;20104;-90
2023/07/24 12:30:08;;;;;;;8.23;5.75;;;;;;;;;;5091210;27;20028;-91
2023/07/24 12:32:35;;;;;;;8.95;6.85;;;;;;;;;;5109256;27;20035;-92
2023/07/24 12:35:01;;;;;;;10.88;6.45;;;;;;;;;;5076412;27;20066;-81
2023/07/24 12:37:28;;;;;;;9.43;5.20;;;;;;;;;;5091554;27;20051;-81
2023/07/24 12:39:57;;;;;;;7.95;5.30;;;;;;;;;;5106049;27;20058;-80
2023/07/24 12:42:24;;;;;;;10.07;6.07;;;;;;;;;;5121940;27;20086;-81
2023/07/24 12:44:50;;;;;;;8.55;6.22;;;;;;;;;;5082037;27;20118;-80
2023/07/24 12:47:16;;;;;;;16.15;7.18;;;;;;;;;;5071376;27;20123;-79
2023/07/24 12:49:42;;;;;;;21.20;7.88;;;;;;;;;;5075926;27;20043;-81
2023/07/24 12:52:08;;;;;;;19.33;7.82;;;;;;;;;;5117253;27;20138;-80
2023/07/24 12:54:35;;;;;;;13.27;7.25;;;;;;;;;;5095733;27;20131;-82
2023/07/24 12:57:02;;;;;;;32.10;10.90;;;;;;;;;;5101637;27;20046;-80
2023/07/24 12:59:28;;;;;;;16.55;9.63;;;;;;;;;;5082711;27;20922;-80
2023/07/24 13:01:57;;;;;;;15.77;9.23;;;;;;;;;;5103018;27;20034;-81
2023/07/24 13:04:53;;;;;;;12.32;8.50;;;;;;;;;;5078620;27;20566;-81
2023/07/24 13:07:38;;;;;;;15.80;8.55;;;;;;;;;;5074338;27;20043;-81
2023/07/24 13:10:11;;;;;;;8.98;7.32;;;;;;;;;;5115023;27;20597;-81
2023/07/24 13:12:57;;;;;;;11.18;7.47;;;;;;;;;;5088131;27;20087;-80
2023/07/24 13:15:31;;;;;;;10.82;6.85;;;;;;;;;;5101674;27;20072;-80
2023/07/24 13:18:07;;;;;;;11.48;5.72;;;;;;;;;;5101972;27;20055;-81
2023/07/24 13:20:33;;;;;;;6.83;5.03;;;;;;;;;;5077315;27;20129;-80
2023/07/24 13:22:59;;;;;;;10.35;5.07;;;;;;;;;;5086249;27;20051;-80
2023/07/24 13:25:33;;;;;;;8.45;5.47;;;;;;;;;;5089445;27;20103;-82
2023/07/24 13:28:05;;;;;;;9.07;4.95;;;;;;;;;;5061787;27;20032;-81
2023/07/24 13:30:34;;;;;;;7.85;6.28;;;;;;;;;;5089078;27;20555;-81
2023/07/24 13:33:00;;;;;;;8.13;6.20;;;;;;;;;;5073537;27;20398;-81
2023/07/24 13:35:27;;;;;;;9.93;6.80;;;;;;;;;;5100936;27;20256;-80
2023/07/24 13:37:55;;;;;;;11.07;7.45;;;;;;;;;;5085848;27;20039;-80
2023/07/24 13:40:22;;;;;;;13.95;8.35;;;;;;;;;;5084971;27;20118;-81
2023/07/24 13:42:57;;;;;;;15.55;7.22;;;;;;;;;;5086713;27;20087;-79
2023/07/24 13:45:27;;;;;;;5.40;4.22;;;;;;;;;;5083343;27;20045;-78
2023/07/24 13:47:53;;;;;;;5.53;3.67;;;;;;;;;;5096939;27;20547;-79
2023/07/24 13:50:19;;;;;;;5.82;2.90;;;;;;;;;;5099884;27;20154;-78
2023/07/24 13:52:45;;;;;;;5.65;2.42;;;;;;;;;;5081662;27;20047;-79
2023/07/24 13:55:13;;;;;;;7.40;2.75;;;;;;;;;;5088433;27;20073;-79
2023/07/24 13:57:43;;;;;;;4.10;2.17;;;;;;;;;;5064645;27;20131;-80
2023/07/24 14:18:21;;;;;;;10.15;2.70;;;;;;;;;;5124277;27;20034;-80
2023/07/24 14:21:06;;;;;;;8.45;3.08;;;;;;;;;;5080033;27;20195;-80
2023/07/24 14:23:42;;;;;;;10.00;3.47;;;;;;;;;;5122299;27;20092;-80
2023/07/24 14:29:34;;;;;;;8.63;2.60;;;;;;;;;;5096157;27;20047;-80
2023/07/24 14:32:26;;;;;;;10.20;3.55;;;;;;;;;;5094760;27;20055;-80
2023/07/24 15:01:28;;;;;;;11.63;2.45;;;;;;;;;;5073120;28;20081;-83
2023/07/24 15:04:19;;;;;;;7.85;2.72;;;;;;;;;;5026071;28;20405;-82
2023/07/24 15:07:16;;;;;;;6.80;1.83;;;;;;;;;;5003063;28;20051;-82
2023/07/24 15:10:18;;;;;;;5.95;1.60;;;;;;;;;;5047115;28;20125;-81
2023/07/24 15:19:49;;;;;;;7.15;1.67;;;;;;;;;;4859872;29;20048;-81
2023/07/24 15:22:40;;;;;;;4.78;1.65;;;;;;;;;;4829317;29;20164;-81
2023/07/24 15:25:15;;;;;;;4.93;1.50;;;;;;;;;;4838816;29;20133;-82
2023/07/24 15:28:14;;;;;;;5.45;1.58;;;;;;;;;;4823089;29;20098;-81